Time;durP1;ratioP1;P1;durP2;ratioP2;P2;SDS_P1;SDS_P2;PMS_P1;PMS_P2;Temp;Humidity;BMP_temperature;BMP_pressure;BME280_temperature;BME280_humidity;BME280_pressure;Samples;Min_cycle;Max_cycle;Signal;HPM_P1;HPM_P2
2024/01/17 00:03:38;;;;;;;12.37;7.80;;;;;-2.70;99614.00;;;;9821675;30;20246;-81
2024/01/17 00:08:39;;;;;;;15.33;8.53;;;;;-2.60;99608.00;;;;9831777;29;20692;-82
2024/01/17 00:13:40;;;;;;;19.80;8.50;;;;;-2.60;99601.00;;;;9840055;29;20251;-82
2024/01/17 00:18:42;;;;;;;12.70;8.57;;;;;-2.70;99587.00;;;;9848155;29;20263;-82
2024/01/17 00:23:43;;;;;;;14.30;8.73;;;;;-2.70;99588.00;;;;9808917;30;20228;-82
2024/01/17 00:28:44;;;;;;;11.37;7.70;;;;;-2.70;99577.00;;;;9834596;29;20987;-82
2024/01/17 00:33:45;;;;;;;12.17;7.97;;;;;-2.60;99569.00;;;;9805598;29;20259;-82
2024/01/17 00:38:47;;;;;;;18.80;7.47;;;;;-2.50;99563.00;;;;9813470;29;20751;-81
2024/01/17 00:43:48;;;;;;;14.23;7.13;;;;;-2.20;99542.00;;;;9810131;30;20258;-81
2024/01/17 00:48:49;;;;;;;11.57;7.17;;;;;-1.90;99544.00;;;;9835081;29;20958;-81
2024/01/17 00:53:53;;;;;;;15.63;8.33;;;;;-2.00;99538.00;;;;9799635;29;20259;-81
2024/01/17 00:58:54;;;;;;;16.73;8.10;;;;;-2.00;99531.00;;;;9812839;30;20336;-82
2024/01/17 01:03:55;;;;;;;20.50;7.87;;;;;-2.10;99521.00;;;;9836429;29;20235;-81
2024/01/17 01:08:56;;;;;;;13.33;8.07;;;;;-2.30;99511.00;;;;9848914;29;20245;-82
2024/01/17 01:13:59;;;;;;;10.90;7.27;;;;;-2.40;99500.00;;;;9819194;29;20331;-81
2024/01/17 01:19:00;;;;;;;9.83;5.80;;;;;-2.50;99492.00;;;;9829957;29;20712;-81
2024/01/17 01:24:02;;;;;;;12.10;7.53;;;;;-2.50;99492.00;;;;9819913;29;20593;-84
2024/01/17 01:29:03;;;;;;;11.60;5.77;;;;;-2.50;99488.00;;;;9828211;29;20347;-82
2024/01/17 01:34:04;;;;;;;9.40;6.00;;;;;-2.50;99487.00;;;;9816482;29;20228;-81
2024/01/17 01:39:05;;;;;;;13.93;7.83;;;;;-2.50;99469.00;;;;9814037;30;20283;-82
2024/01/17 01:44:07;;;;;;;17.17;8.03;;;;;-2.60;99450.00;;;;9818010;29;20251;-82
2024/01/17 01:49:08;;;;;;;14.00;8.57;;;;;-2.60;99444.00;;;;9798666;30;20326;-81
2024/01/17 01:54:14;;;;;;;13.80;8.90;;;;;-2.70;99434.00;;;;9826489;29;20248;-82
2024/01/17 01:59:17;;;;;;;13.20;7.20;;;;;-2.80;99432.00;;;;9829803;29;20670;-82
2024/01/17 02:04:18;;;;;;;12.43;7.83;;;;;-2.80;99420.00;;;;9837684;29;20240;-82
2024/01/17 02:09:19;;;;;;;14.07;8.03;;;;;-2.80;99414.00;;;;9813064;29;20232;-83
2024/01/17 02:14:20;;;;;;;11.73;6.97;;;;;-2.80;99404.00;;;;9810740;29;20254;-82
2024/01/17 02:19:22;;;;;;;14.57;8.63;;;;;-2.90;99408.00;;;;9810877;30;20348;-83
2024/01/17 02:24:23;;;;;;;11.47;7.67;;;;;-2.90;99395.00;;;;9827781;29;20293;-83
2024/01/17 02:29:25;;;;;;;12.00;7.57;;;;;-2.90;99384.00;;;;9826019;29;20306;-83
2024/01/17 02:34:26;;;;;;;15.50;8.40;;;;;-2.90;99370.00;;;;9810305;29;20236;-83
2024/01/17 02:39:27;;;;;;;17.43;8.07;;;;;-3.00;99356.00;;;;9826828;29;20315;-83
2024/01/17 02:44:29;;;;;;;14.13;6.30;;;;;-3.00;99347.00;;;;9818097;30;20231;-83
2024/01/17 02:49:30;;;;;;;13.17;7.67;;;;;-3.00;99338.00;;;;9845765;29;20240;-83
2024/01/17 02:54:31;;;;;;;15.50;8.23;;;;;-3.10;99329.00;;;;9803851;29;20243;-84
2024/01/17 02:59:33;;;;;;;13.60;7.60;;;;;-3.10;99294.00;;;;9821236;29;20240;-84
2024/01/17 03:04:34;;;;;;;13.53;7.40;;;;;-3.20;99281.00;;;;9830790;29;20228;-84
2024/01/17 03:09:37;;;;;;;13.63;7.40;;;;;-3.30;99279.00;;;;9828006;29;20247;-84
2024/01/17 03:14:39;;;;;;;12.37;7.07;;;;;-3.40;99271.00;;;;9840799;29;20231;-85
2024/01/17 03:19:42;;;;;;;12.67;7.93;;;;;-3.40;99268.00;;;;9842997;29;20224;-84
2024/01/17 03:24:46;;;;;;;11.20;7.43;;;;;-3.40;99255.00;;;;9834525;29;20220;-84
2024/01/17 03:29:47;;;;;;;14.40;8.20;;;;;-3.30;99242.00;;;;9807595;29;20316;-85
2024/01/17 03:34:49;;;;;;;14.47;6.30;;;;;-3.20;99239.00;;;;9804830;29;20298;-84
2024/01/17 03:39:50;;;;;;;12.43;7.23;;;;;-3.20;99220.00;;;;9811322;29;20343;-84
2024/01/17 03:44:52;;;;;;;15.53;7.70;;;;;-3.20;99202.00;;;;9830664;29;20227;-84
2024/01/17 03:49:53;;;;;;;11.90;7.13;;;;;-3.30;99178.00;;;;9811724;29;20652;-84
2024/01/17 03:54:54;;;;;;;12.27;7.20;;;;;-3.40;99162.00;;;;9808150;30;20386;-84
2024/01/17 03:59:55;;;;;;;10.90;6.57;;;;;-3.40;99162.00;;;;9790578;29;20232;-85
2024/01/17 04:04:57;;;;;;;11.60;7.17;;;;;-3.50;99157.00;;;;9811232;29;20293;-85
2024/01/17 04:09:58;;;;;;;11.97;6.83;;;;;-3.60;99151.00;;;;9848842;29;20272;-85
2024/01/17 04:14:59;;;;;;;15.47;7.00;;;;;-3.80;99132.00;;;;9818631;29;20607;-84
2024/01/17 04:20:02;;;;;;;13.80;8.23;;;;;-3.80;99123.00;;;;9802704;29;20223;-84
2024/01/17 04:25:04;;;;;;;10.43;6.53;;;;;-3.80;99119.00;;;;9824589;29;20239;-84
2024/01/17 04:30:06;;;;;;;13.53;7.07;;;;;-3.70;99092.00;;;;9806650;29;20236;-85
2024/01/17 04:35:07;;;;;;;12.63;7.57;;;;;-3.70;99074.00;;;;9825627;29;20246;-84
2024/01/17 04:40:09;;;;;;;14.07;7.83;;;;;-3.70;99057.00;;;;9818845;30;20232;-84
2024/01/17 04:45:12;;;;;;;14.63;8.00;;;;;-3.60;99055.00;;;;9813730;29;20244;-84
2024/01/17 04:50:13;;;;;;;9.80;7.00;;;;;-3.60;99049.00;;;;9793843;29;20248;-84
2024/01/17 04:55:15;;;;;;;12.80;8.33;;;;;-3.60;99055.00;;;;9830193;29;20235;-84
2024/01/17 05:00:17;;;;;;;12.47;8.43;;;;;-3.60;99036.00;;;;9808068;29;20651;-84
2024/01/17 05:05:18;;;;;;;17.77;8.07;;;;;-3.50;99027.00;;;;9823097;29;20935;-84
2024/01/17 05:10:19;;;;;;;11.77;7.70;;;;;-3.40;99036.00;;;;9816798;29;20228;-84
2024/01/17 05:15:20;;;;;;;13.23;7.27;;;;;-3.40;99014.00;;;;9821052;29;20232;-84
2024/01/17 05:20:21;;;;;;;11.13;7.07;;;;;-3.40;99006.00;;;;9817808;30;20804;-84
2024/01/17 05:25:22;;;;;;;14.63;7.50;;;;;-3.30;98985.00;;;;9812463;30;20264;-85
2024/01/17 05:30:24;;;;;;;11.83;7.03;;;;;-3.20;98988.00;;;;9806893;29;20239;-85
2024/01/17 05:35:28;;;;;;;14.57;7.27;;;;;-3.10;98990.00;;;;9825617;29;20619;-85
2024/01/17 08:04:43;;;;;;;14.33;8.00;;;;;-2.30;98736.00;;;;4060113;24;20564;-78
2024/01/17 08:09:44;;;;;;;14.73;8.87;;;;;-2.30;98720.00;;;;9831043;29;20271;-82
2024/01/17 08:14:48;;;;;;;18.40;9.00;;;;;-2.30;98707.00;;;;9853269;29;20240;-81
2024/01/17 08:19:49;;;;;;;16.63;9.33;;;;;-2.30;98696.00;;;;9841932;29;20227;-79
2024/01/17 08:24:51;;;;;;;17.93;8.30;;;;;-2.20;98689.00;;;;9833667;29;20611;-81
2024/01/17 08:29:52;;;;;;;15.00;8.90;;;;;-2.20;98683.00;;;;9846315;29;20285;-82
2024/01/17 08:34:54;;;;;;;23.67;9.80;;;;;-2.10;98684.00;;;;9851899;29;20259;-80
2024/01/17 08:39:55;;;;;;;16.30;8.73;;;;;-2.00;98673.00;;;;9844965;29;20291;-80
2024/01/17 08:44:56;;;;;;;14.50;8.73;;;;;-2.00;98669.00;;;;9843562;29;20241;-83
2024/01/17 08:50:00;;;;;;;16.50;9.03;;;;;-1.90;98659.00;;;;9838923;29;20244;-82
2024/01/17 08:55:02;;;;;;;20.30;10.30;;;;;-1.80;98656.00;;;;9840605;29;20318;-82
2024/01/17 09:00:08;;;;;;;20.30;9.53;;;;;-1.70;98643.00;;;;9835226;29;20240;-84
2024/01/17 09:05:09;;;;;;;15.60;9.57;;;;;-1.70;98633.00;;;;9827554;29;20263;-83
2024/01/17 09:10:12;;;;;;;19.57;9.30;;;;;-1.70;98624.00;;;;9803370;29;20231;-86
2024/01/17 09:15:14;;;;;;;19.50;10.10;;;;;-1.60;98628.00;;;;9814074;29;20228;-86
2024/01/17 09:20:15;;;;;;;17.53;10.90;;;;;-1.60;98613.00;;;;9832645;30;20231;-87
2024/01/17 09:25:17;;;;;;;16.67;9.53;;;;;-1.50;98611.00;;;;9810354;29;20236;-87
2024/01/17 09:30:18;;;;;;;19.17;10.37;;;;;-1.50;98621.00;;;;9807160;29;20988;-87
2024/01/17 09:35:19;;;;;;;15.30;10.13;;;;;-1.50;98614.00;;;;9822015;29;20224;-87
2024/01/17 09:40:21;;;;;;;23.87;11.33;;;;;-1.50;98614.00;;;;9827431;29;20309;-86
2024/01/17 09:45:22;;;;;;;20.30;10.80;;;;;-1.40;98614.00;;;;9809603;29;21056;-86
2024/01/17 09:50:24;;;;;;;16.53;9.47;;;;;-1.30;98617.00;;;;9821865;29;20973;-86
2024/01/17 09:55:26;;;;;;;16.23;10.60;;;;;-1.30;98616.00;;;;9836302;29;20319;-86
2024/01/17 10:00:28;;;;;;;22.43;10.87;;;;;-1.30;98613.00;;;;9825730;29;20236;-86
2024/01/17 10:05:31;;;;;;;19.67;12.03;;;;;-1.20;98614.00;;;;9819932;30;20675;-87
2024/01/17 10:10:37;;;;;;;25.60;11.70;;;;;-1.20;98609.00;;;;9828640;29;20246;-86
2024/01/17 10:15:59;;;;;;;17.93;11.23;;;;;-1.20;98596.00;;;;9807740;29;20297;-86
2024/01/17 10:21:03;;;;;;;19.13;11.03;;;;;-1.10;98586.00;;;;9823103;29;20399;-82
2024/01/17 10:26:04;;;;;;;21.37;12.33;;;;;-1.10;98577.00;;;;9820561;29;20231;-82
2024/01/17 10:31:05;;;;;;;23.57;13.77;;;;;-1.10;98563.00;;;;9832752;29;20616;-85
2024/01/17 10:36:07;;;;;;;20.87;12.57;;;;;-1.00;98560.00;;;;9827253;29;20974;-83
2024/01/17 10:41:08;;;;;;;21.90;11.67;;;;;-1.00;98554.00;;;;9806084;29;20239;-81
2024/01/17 10:46:10;;;;;;;20.33;12.27;;;;;-1.10;98549.00;;;;9822150;29;20266;-84
2024/01/17 10:51:19;;;;;;;27.43;12.70;;;;;-1.10;98529.00;;;;9821302;29;20314;-83
2024/01/17 10:56:21;;;;;;;26.03;13.20;;;;;-1.10;98537.00;;;;9850754;29;20236;-82
2024/01/17 11:01:31;;;;;;;21.80;12.97;;;;;-1.10;98518.00;;;;9800231;29;20318;-83
2024/01/17 11:06:34;;;;;;;31.83;14.63;;;;;-1.10;98503.00;;;;9825373;29;20224;-83
2024/01/17 11:11:38;;;;;;;21.87;13.63;;;;;-1.10;98487.00;;;;9825130;29;20232;-81
2024/01/17 11:16:42;;;;;;;23.73;13.00;;;;;-1.10;98477.00;;;;9838175;29;20239;-82
2024/01/17 11:21:43;;;;;;;26.03;13.13;;;;;-1.10;98466.00;;;;9799709;30;20764;-84
2024/01/17 11:26:52;;;;;;;28.00;13.80;;;;;-1.10;98464.00;;;;9823507;29;20235;-84
2024/01/17 11:32:11;;;;;;;26.13;13.43;;;;;-1.10;98447.00;;;;9849614;29;20239;-88
2024/01/17 11:37:33;;;;;;;20.70;13.27;;;;;-1.10;98425.00;;;;9838137;29;20242;-87
2024/01/17 11:42:35;;;;;;;22.50;14.53;;;;;-1.10;98407.00;;;;9833612;29;20651;-87
2024/01/17 11:47:36;;;;;;;22.07;13.33;;;;;-0.90;98403.00;;;;9818696;29;20271;-87
2024/01/17 11:52:37;;;;;;;24.70;13.47;;;;;-0.90;98402.00;;;;9821166;29;20238;-86
2024/01/17 11:57:40;;;;;;;26.03;13.77;;;;;-0.80;98379.00;;;;9803538;30;20243;-86
2024/01/17 12:02:43;;;;;;;25.07;13.43;;;;;-0.80;98375.00;;;;9824814;29;20228;-86
2024/01/17 12:07:49;;;;;;;25.83;14.43;;;;;-0.80;98362.00;;;;9809072;29;20240;-86
2024/01/17 12:12:50;;;;;;;29.60;14.40;;;;;-0.70;98361.00;;;;9819501;29;20228;-85
2024/01/17 12:17:52;;;;;;;24.87;15.47;;;;;-0.60;98348.00;;;;9836217;29;20299;-86
2024/01/17 12:22:54;;;;;;;30.33;17.53;;;;;-0.50;98334.00;;;;9823279;29;20300;-87
2024/01/17 12:27:55;;;;;;;31.43;17.90;;;;;-0.40;98320.00;;;;9819974;29;20319;-84
2024/01/17 12:32:57;;;;;;;25.27;16.47;;;;;-0.30;98310.00;;;;9837544;29;20315;-86
2024/01/17 12:37:58;;;;;;;25.87;15.13;;;;;-0.20;98310.00;;;;9820589;29;20758;-86
2024/01/17 12:43:01;;;;;;;29.03;15.67;;;;;-0.30;98295.00;;;;9818959;29;20270;-83
2024/01/17 12:48:03;;;;;;;25.83;15.40;;;;;-0.30;98292.00;;;;9818671;29;20857;-83
2024/01/17 12:53:05;;;;;;;27.60;16.60;;;;;-0.30;98287.00;;;;9804466;29;20280;-83
2024/01/17 12:58:11;;;;;;;25.60;16.40;;;;;-0.30;98284.00;;;;9817190;29;20240;-82
2024/01/17 13:03:13;;;;;;;28.50;16.33;;;;;-0.40;98281.00;;;;9832224;29;20944;-82
2024/01/17 13:08:21;;;;;;;26.63;16.23;;;;;-0.40;98269.00;;;;9802356;29;21037;-83
2024/01/17 13:13:24;;;;;;;26.00;15.43;;;;;-0.40;98267.00;;;;9843152;29;20279;-82
2024/01/17 13:18:25;;;;;;;29.20;16.57;;;;;-0.50;98254.00;;;;9807875;29;20747;-83
2024/01/17 13:23:27;;;;;;;29.53;17.47;;;;;-0.50;98258.00;;;;9824038;29;20243;-83
2024/01/17 13:28:28;;;;;;;30.63;16.50;;;;;-0.50;98246.00;;;;9818703;29;20254;-83
2024/01/17 13:33:29;;;;;;;25.47;16.67;;;;;-0.50;98234.00;;;;9829616;29;20311;-83
2024/01/17 13:38:33;;;;;;;29.30;16.57;;;;;-0.50;98238.00;;;;9796966;29;20228;-84
2024/01/17 13:43:34;;;;;;;26.20;15.97;;;;;-0.60;98236.00;;;;9821434;30;20297;-83
2024/01/17 13:48:37;;;;;;;27.03;16.43;;;;;-0.50;98237.00;;;;9802037;29;20239;-83
2024/01/17 13:53:42;;;;;;;30.20;17.47;;;;;-0.40;98232.00;;;;9835390;29;20236;-83
2024/01/17 13:58:44;;;;;;;24.20;16.83;;;;;-0.40;98242.00;;;;9817658;29;20236;-83
2024/01/17 14:03:46;;;;;;;29.47;17.67;;;;;-0.40;98230.00;;;;9799648;29;20242;-82
2024/01/17 14:08:47;;;;;;;30.83;17.97;;;;;-0.30;98227.00;;;;9817073;29;20232;-84
2024/01/17 14:13:48;;;;;;;27.20;16.43;;;;;-0.20;98231.00;;;;9815011;29;20886;-83
2024/01/17 14:18:49;;;;;;;29.07;16.87;;;;;-0.10;98234.00;;;;9813972;29;20770;-82
2024/01/17 14:23:51;;;;;;;27.03;17.27;;;;;0.00;98242.00;;;;9814431;29;20297;-81
2024/01/17 14:28:52;;;;;;;27.30;17.50;;;;;0.00;98234.00;;;;9813959;29;20260;-82
2024/01/17 14:33:54;;;;;;;27.70;16.77;;;;;0.00;98234.00;;;;9811012;30;20234;-82
2024/01/17 14:38:55;;;;;;;28.63;19.13;;;;;-0.10;98230.00;;;;9830830;29;20239;-82
2024/01/17 14:43:57;;;;;;;31.50;19.30;;;;;-0.10;98233.00;;;;9808548;29;20836;-82
2024/01/17 14:48:58;;;;;;;33.20;20.77;;;;;0.00;98232.00;;;;9828263;29;20631;-82
2024/01/17 14:53:59;;;;;;;31.77;20.03;;;;;0.00;98228.00;;;;9819904;29;20277;-84
2024/01/17 14:59:01;;;;;;;28.17;19.03;;;;;0.00;98226.00;;;;9813014;29;20232;-82
2024/01/17 15:04:02;;;;;;;27.13;18.97;;;;;0.00;98236.00;;;;9822610;29;20315;-85
2024/01/17 15:09:07;;;;;;;28.30;18.60;;;;;0.00;98227.00;;;;9818112;29;20359;-84
2024/01/17 15:14:10;;;;;;;37.97;24.10;;;;;0.00;98242.00;;;;9813672;29;20244;-84
2024/01/17 15:19:11;;;;;;;28.97;18.07;;;;;-0.10;98226.00;;;;9817262;29;20236;-84
2024/01/17 15:24:13;;;;;;;31.27;18.57;;;;;-0.20;98233.00;;;;9813713;29;20232;-84
2024/01/17 15:29:14;;;;;;;30.67;17.67;;;;;-0.20;98240.00;;;;9820341;29;20243;-84
2024/01/17 15:34:17;;;;;;;29.80;18.30;;;;;-0.30;98245.00;;;;9820370;29;20236;-84
2024/01/17 15:39:19;;;;;;;31.87;19.90;;;;;-0.30;98230.00;;;;9832714;29;20358;-84
2024/01/17 15:44:20;;;;;;;30.27;18.43;;;;;-0.40;98239.00;;;;9815272;29;20281;-85
2024/01/17 15:49:21;;;;;;;28.50;17.23;;;;;-0.40;98255.00;;;;9807042;29;20232;-85
2024/01/17 15:54:24;;;;;;;30.83;17.20;;;;;-0.50;98268.00;;;;9813611;29;20240;-84
2024/01/17 15:59:25;;;;;;;29.00;16.77;;;;;-0.50;98278.00;;;;9805279;29;20293;-83
2024/01/17 16:04:26;;;;;;;28.10;16.87;;;;;-0.50;98268.00;;;;9819956;29;20276;-84
2024/01/17 16:09:27;;;;;;;29.53;18.07;;;;;-0.50;98269.00;;;;9829194;29;20264;-83
2024/01/17 16:14:28;;;;;;;31.47;19.23;;;;;-0.60;98281.00;;;;9810741;29;20238;-81
2024/01/17 16:19:29;;;;;;;28.10;17.80;;;;;-0.60;98280.00;;;;9823737;29;20238;-81
2024/01/17 16:24:31;;;;;;;29.03;18.13;;;;;-0.60;98284.00;;;;9817457;29;20240;-81
2024/01/17 16:29:34;;;;;;;30.03;19.33;;;;;-0.60;98296.00;;;;9816154;29;20266;-83
2024/01/17 16:34:39;;;;;;;37.23;22.17;;;;;-0.60;98291.00;;;;9819466;29;21008;-82
2024/01/17 16:39:40;;;;;;;52.23;30.23;;;;;-0.60;98295.00;;;;9831846;29;20615;-82
2024/01/17 16:44:42;;;;;;;35.00;20.67;;;;;-0.70;98299.00;;;;9807992;29;20378;-82
2024/01/17 16:49:43;;;;;;;36.10;23.43;;;;;-0.70;98303.00;;;;9816408;29;20255;-83
2024/01/17 16:54:44;;;;;;;34.47;22.80;;;;;-0.70;98304.00;;;;9796163;30;20259;-82
2024/01/17 16:59:47;;;;;;;37.90;23.60;;;;;-0.70;98314.00;;;;9812082;29;20912;-82
2024/01/17 17:04:48;;;;;;;39.23;23.73;;;;;-0.70;98317.00;;;;9827486;29;20820;-82
2024/01/17 17:09:49;;;;;;;39.27;23.97;;;;;-0.70;98312.00;;;;9797541;29;20252;-82
2024/01/17 17:14:51;;;;;;;37.87;23.63;;;;;-0.80;98313.00;;;;9817636;29;20238;-82
2024/01/17 17:19:52;;;;;;;45.10;25.57;;;;;-0.80;98299.00;;;;9826413;29;20235;-82
2024/01/17 17:24:53;;;;;;;49.70;27.47;;;;;-0.80;98313.00;;;;9805774;29;20362;-87
2024/01/17 17:29:54;;;;;;;48.63;28.13;;;;;-0.80;98316.00;;;;9822336;29;20235;-88
2024/01/17 17:34:56;;;;;;;41.17;23.40;;;;;-0.80;98333.00;;;;9820258;29;20668;-88
2024/01/17 17:39:59;;;;;;;40.23;23.27;;;;;-0.80;98327.00;;;;9841437;29;20236;-86
2024/01/17 17:45:01;;;;;;;34.20;20.17;;;;;-0.90;98331.00;;;;9828725;30;20231;-87
2024/01/17 17:50:10;;;;;;;31.37;17.93;;;;;-0.80;98350.00;;;;9831006;29;20293;-86
2024/01/17 17:55:11;;;;;;;33.97;19.23;;;;;-0.80;98362.00;;;;9823809;29;20266;-87
2024/01/17 18:00:13;;;;;;;30.47;17.37;;;;;-0.80;98366.00;;;;9829125;29;20231;-88
2024/01/17 18:05:15;;;;;;;32.03;18.97;;;;;-0.80;98377.00;;;;9838160;29;20228;-86
2024/01/17 18:10:16;;;;;;;30.97;19.97;;;;;-0.80;98397.00;;;;9844125;29;20266;-88
2024/01/17 18:15:17;;;;;;;32.73;18.93;;;;;-0.70;98405.00;;;;9834116;29;20231;-88
2024/01/17 18:20:20;;;;;;;32.70;20.67;;;;;-0.70;98408.00;;;;9816814;29;20232;-88
2024/01/17 18:25:23;;;;;;;32.93;21.27;;;;;-0.70;98410.00;;;;9812303;29;20240;-86
2024/01/17 18:30:25;;;;;;;75.27;45.93;;;;;-0.70;98425.00;;;;9837867;29;20251;-89
2024/01/17 18:35:28;;;;;;;71.47;42.43;;;;;-0.80;98437.00;;;;9828273;29;20288;-86
2024/01/17 18:40:29;;;;;;;51.77;32.93;;;;;-0.90;98441.00;;;;9811034;29;20228;-87
2024/01/17 18:45:30;;;;;;;46.40;27.80;;;;;-1.00;98449.00;;;;9849370;29;20923;-87
2024/01/17 18:50:31;;;;;;;46.77;27.73;;;;;-1.00;98443.00;;;;9823744;29;20247;-87
2024/01/17 18:55:32;;;;;;;48.00;29.67;;;;;-1.10;98462.00;;;;9842433;29;20319;-87
2024/01/17 19:00:33;;;;;;;46.37;27.93;;;;;-1.00;98457.00;;;;9814019;29;20300;-87
2024/01/17 19:05:37;;;;;;;45.90;29.50;;;;;-1.00;98445.00;;;;9843533;29;20231;-87
2024/01/17 19:10:39;;;;;;;46.80;27.63;;;;;-1.00;98443.00;;;;9822039;29;20290;-86
2024/01/17 19:15:42;;;;;;;49.13;28.73;;;;;-1.00;98455.00;;;;9834601;29;20242;-87
2024/01/17 19:20:45;;;;;;;56.83;30.40;;;;;-1.00;98463.00;;;;9840597;29;20271;-86
2024/01/17 19:25:46;;;;;;;76.13;45.83;;;;;-1.00;98467.00;;;;9832026;30;20985;-86
2024/01/17 19:30:48;;;;;;;47.17;29.83;;;;;-1.00;98477.00;;;;9821216;29;20247;-86
2024/01/17 19:35:49;;;;;;;45.93;27.20;;;;;-1.00;98480.00;;;;9820689;29;20263;-86
2024/01/17 19:40:52;;;;;;;43.63;27.47;;;;;-1.00;98497.00;;;;9839420;29;20239;-82
2024/01/17 19:45:54;;;;;;;42.80;27.97;;;;;-1.00;98509.00;;;;9822539;29;20238;-83
2024/01/17 19:50:55;;;;;;;45.33;26.73;;;;;-1.00;98528.00;;;;9809850;29;20266;-82
2024/01/17 19:55:56;;;;;;;45.87;27.00;;;;;-1.00;98535.00;;;;9836705;29;20611;-82
2024/01/17 20:00:58;;;;;;;43.43;26.60;;;;;-1.00;98543.00;;;;9841198;29;20228;-82
2024/01/17 20:06:04;;;;;;;42.27;25.77;;;;;-1.00;98544.00;;;;9803538;29;20239;-82
2024/01/17 20:11:06;;;;;;;43.40;26.03;;;;;-1.00;98566.00;;;;9827419;29;20228;-82
2024/01/17 20:16:08;;;;;;;49.73;26.83;;;;;-1.00;98555.00;;;;9836237;29;20232;-82
2024/01/17 20:21:21;;;;;;;46.57;27.83;;;;;-1.00;98553.00;;;;9826933;29;20900;-82
2024/01/17 20:26:24;;;;;;;45.33;29.23;;;;;-1.00;98546.00;;;;9813226;29;20251;-82
2024/01/17 20:31:25;;;;;;;45.03;27.87;;;;;-1.00;98551.00;;;;9804353;29;20240;-82
2024/01/17 20:36:27;;;;;;;47.77;27.23;;;;;-1.00;98568.00;;;;9834287;29;21240;-83
2024/01/17 20:41:28;;;;;;;43.23;27.47;;;;;-1.00;98578.00;;;;9841824;29;20239;-82
2024/01/17 20:46:29;;;;;;;50.80;28.93;;;;;-1.00;98572.00;;;;9799133;29;20728;-82
2024/01/17 20:51:30;;;;;;;44.30;27.13;;;;;-1.10;98585.00;;;;9823210;29;20319;-83
2024/01/17 20:56:32;;;;;;;45.80;28.03;;;;;-1.10;98601.00;;;;9828506;29;20260;-81
2024/01/17 21:01:37;;;;;;;49.33;28.77;;;;;-1.10;98623.00;;;;9827411;29;20262;-82
2024/01/17 21:06:39;;;;;;;45.97;28.83;;;;;-1.20;98628.00;;;;9810665;29;20388;-82
2024/01/17 21:11:41;;;;;;;46.33;30.20;;;;;-1.10;98630.00;;;;9832794;29;20236;-83
2024/01/17 21:16:43;;;;;;;52.13;30.03;;;;;-1.10;98622.00;;;;9806890;29;20232;-83
2024/01/17 21:21:44;;;;;;;55.67;31.17;;;;;-1.10;98623.00;;;;9821232;29;21350;-82
2024/01/17 21:26:46;;;;;;;46.93;30.23;;;;;-1.20;98625.00;;;;9821340;29;20247;-82
2024/01/17 21:31:47;;;;;;;48.10;29.83;;;;;-1.10;98639.00;;;;9823744;29;20240;-81
2024/01/17 21:36:50;;;;;;;48.57;30.10;;;;;-1.10;98640.00;;;;9842977;29;20810;-83
2024/01/17 21:41:52;;;;;;;51.40;31.33;;;;;-1.10;98639.00;;;;9807317;29;20318;-81
2024/01/17 21:46:53;;;;;;;47.43;28.63;;;;;-1.10;98647.00;;;;9826067;30;20651;-81
2024/01/17 21:51:58;;;;;;;48.73;29.23;;;;;-1.10;98645.00;;;;9823633;29;20228;-82
2024/01/17 21:56:59;;;;;;;48.27;30.30;;;;;-1.10;98648.00;;;;9807301;29;20243;-82
2024/01/17 22:02:01;;;;;;;51.20;31.30;;;;;-1.10;98640.00;;;;9813806;29;20232;-84
2024/01/17 22:07:02;;;;;;;50.53;29.10;;;;;-1.20;98640.00;;;;9838634;29;20594;-85
2024/01/17 22:12:06;;;;;;;52.10;30.00;;;;;-1.20;98655.00;;;;9809787;29;20297;-84
2024/01/17 22:17:07;;;;;;;49.97;30.43;;;;;-1.20;98669.00;;;;9816853;29;20323;-83
2024/01/17 22:22:08;;;;;;;47.80;31.53;;;;;-1.20;98693.00;;;;9830773;29;20292;-84
2024/01/17 22:27:10;;;;;;;50.53;30.27;;;;;-1.20;98690.00;;;;9822675;29;20331;-85
2024/01/17 22:32:11;;;;;;;50.47;33.07;;;;;-1.20;98699.00;;;;9810251;29;20290;-85
2024/01/17 22:37:14;;;;;;;59.20;34.03;;;;;-1.20;98691.00;;;;9828609;29;20232;-85
2024/01/17 22:42:15;;;;;;;54.93;34.13;;;;;-1.20;98699.00;;;;9826495;29;20325;-84
2024/01/17 22:47:16;;;;;;;63.20;36.50;;;;;-1.20;98716.00;;;;9827152;29;20297;-85
2024/01/17 22:52:17;;;;;;;57.17;32.87;;;;;-1.20;98730.00;;;;9834047;29;20823;-85
2024/01/17 22:57:18;;;;;;;66.10;37.93;;;;;-1.20;98736.00;;;;9816919;29;20234;-84
2024/01/17 23:02:19;;;;;;;55.67;31.23;;;;;-1.20;98740.00;;;;9802794;29;20240;-84
2024/01/17 23:07:21;;;;;;;53.87;30.57;;;;;-1.10;98741.00;;;;9824114;29;20236;-84
2024/01/17 23:12:22;;;;;;;52.43;29.83;;;;;-1.10;98746.00;;;;9831429;29;20260;-88
2024/01/17 23:17:24;;;;;;;56.23;31.70;;;;;-1.10;98755.00;;;;9854793;29;20235;-89
2024/01/17 23:22:25;;;;;;;51.17;29.97;;;;;-1.10;98744.00;;;;9841822;29;20273;-89
2024/01/17 23:27:26;;;;;;;52.33;29.70;;;;;-1.10;98757.00;;;;9840639;29;20680;-90
2024/01/17 23:32:28;;;;;;;52.40;29.10;;;;;-1.00;98754.00;;;;9844945;29;20244;-88
2024/01/17 23:37:29;;;;;;;51.63;29.77;;;;;-1.00;98755.00;;;;9847523;29;20248;-89
2024/01/17 23:42:30;;;;;;;49.30;28.73;;;;;-1.00;98766.00;;;;9848606;29;20228;-88
2024/01/17 23:47:33;;;;;;;50.37;31.27;;;;;-1.00;98781.00;;;;9842580;29;20224;-89
2024/01/17 23:52:35;;;;;;;44.70;29.17;;;;;-1.00;98794.00;;;;9833469;29;20343;-88
2024/01/17 23:57:36;;;;;;;52.33;30.03;;;;;-1.00;98787.00;;;;9827027;29;20224;-89
